6I6 weather

Darby Dan Airport
Columbus, Ohio, United States

Public forecast

Using degrees Fahrenheit for public forecast. Weather courtesy of forecast.io.

Closest aviation weather report (METAR) to Darby Dan Airport

Closest report is Bolton Field, 4.0 nm (7.4 km) SE. Retrieved 2020/07/07 02:35 UTC (7 minutes ago):

KTZR 070235Z AUTO 20008KT 10SM CLR 25/21 A3002 RMK AO2 T02530210

Closest aviation forecast (TAF) to Darby Dan Airport

Forecast is more than 6 hours old.

Closest forecast is John Glenn Columbus International Airport, 14.8 nm (27.4 km) ENE. Retrieved 2020/07/06 18:36 UTC (8 hours ago):

TAF KCMH 061734Z 0618/0718 12005KT P6SM SCT060 FM061900 11006KT P6SM VCTS SCT060CB SCT110 FM070000 VRB03KT P6SM SCT120 FM071600 24006KT P6SM SCT050